createdAt,value
2019-01-29T00:02:51.768Z,78.69
2019-01-29T00:07:46.359Z,78.74
2019-01-29T00:12:40.949Z,79.31
2019-01-29T00:17:35.530Z,79.29
2019-01-29T00:22:33.469Z,80.06
2019-01-29T00:27:26.391Z,79.40
2019-01-29T00:32:20.980Z,79.78
2019-01-29T00:37:15.583Z,78.03
2019-01-29T00:42:10.171Z,78.68
2019-01-29T00:47:04.827Z,78.93
2019-01-29T00:51:59.428Z,79.43
2019-01-29T00:56:54.003Z,80.12
2019-01-29T01:01:48.592Z,80.11
2019-01-29T01:06:43.212Z,79.21
2019-01-29T01:11:37.885Z,79.97
2019-01-29T01:16:32.601Z,79.98
2019-01-29T01:21:27.199Z,80.15
2019-01-29T01:26:21.781Z,81.02
2019-01-29T01:31:16.824Z,81.27
2019-01-29T01:36:11.403Z,80.85
2019-01-29T01:41:06.073Z,79.25
2019-01-29T01:46:00.673Z,78.67
2019-01-29T01:50:55.288Z,79.31
2019-01-29T01:55:49.897Z,79.46
2019-01-29T02:00:44.497Z,78.87
2019-01-29T02:05:39.224Z,78.88
2019-01-29T02:10:33.944Z,79.96
2019-01-29T02:15:28.739Z,80.11
2019-01-29T02:20:23.526Z,79.91
2019-01-29T02:25:18.254Z,79.61
2019-01-29T02:30:22.777Z,80.27
2019-01-29T02:35:17.416Z,79.80
2019-01-29T02:40:16.576Z,80.90
2019-01-29T02:45:15.098Z,80.29
2019-01-29T02:50:13.119Z,79.60
2019-01-29T02:55:11.511Z,79.16
2019-01-29T03:00:13.710Z,80.04
2019-01-29T03:05:12.522Z,81.14
2019-01-29T03:10:11.696Z,82.20
2019-01-29T03:15:13.532Z,83.11
2019-01-29T03:20:12.276Z,83.64
2019-01-29T03:25:11.043Z,83.23
2019-01-29T03:30:13.167Z,82.84
2019-01-29T03:35:09.848Z,82.62
2019-01-29T03:40:07.898Z,82.50
2019-01-29T03:45:02.468Z,83.35
2019-01-29T03:49:57.058Z,83.82
2019-01-29T03:54:51.629Z,84.18
2019-01-29T03:59:46.252Z,84.31
2019-01-29T04:04:40.837Z,83.72
2019-01-29T04:09:35.430Z,83.21
2019-01-29T04:14:30.006Z,82.69
2019-01-29T04:19:27.176Z,81.97
2019-01-29T04:24:21.751Z,81.00
2019-01-29T04:29:16.376Z,81.50
2019-01-29T04:34:10.988Z,82.06
2019-01-29T04:39:08.300Z,82.08
2019-01-29T04:44:02.896Z,82.05
2019-01-29T04:48:57.471Z,82.35
2019-01-29T04:53:57.637Z,82.38
2019-01-29T04:58:48.380Z,83.54
2019-01-29T05:03:43.026Z,83.94
2019-01-29T05:08:37.635Z,83.97
2019-01-29T05:13:32.232Z,82.94
2019-01-29T05:18:26.815Z,83.42
2019-01-29T05:23:21.404Z,82.23
2019-01-29T05:28:16.013Z,82.58
2019-01-29T05:33:10.620Z,82.67
2019-01-29T05:38:05.348Z,83.11
2019-01-29T05:42:59.930Z,82.94
2019-01-29T05:47:54.583Z,83.46
2019-01-29T05:52:49.304Z,83.41
2019-01-29T05:57:44.057Z,83.26
2019-01-29T06:02:38.723Z,83.31
2019-01-29T06:07:33.305Z,83.38
2019-01-29T06:12:27.997Z,82.59
2019-01-29T06:17:27.505Z,83.16
2019-01-29T06:22:18.901Z,83.46
2019-01-29T06:27:13.497Z,82.32
2019-01-29T06:32:08.144Z,82.34
2019-01-29T06:37:02.763Z,82.39
2019-01-29T06:41:57.350Z,83.04
2019-01-29T06:46:52.081Z,83.08
2019-01-29T06:51:46.805Z,82.75
2019-01-29T06:56:41.421Z,82.38
2019-01-29T07:01:36.019Z,82.37
2019-01-29T07:06:30.582Z,82.61
2019-01-29T07:11:25.172Z,83.31
2019-01-29T07:16:33.491Z,83.00
2019-01-29T07:21:28.043Z,81.51
2019-01-29T07:26:22.780Z,82.04
2019-01-29T07:31:17.436Z,82.01
2019-01-29T07:36:12.024Z,81.63
2019-01-29T07:41:07.250Z,81.71
2019-01-29T07:46:01.920Z,80.94
2019-01-29T07:50:56.565Z,80.60
2019-01-29T07:55:51.282Z,79.93
2019-01-29T08:00:55.658Z,79.45
2019-01-29T08:05:53.588Z,79.04
2019-01-29T08:10:54.011Z,78.62
2019-01-29T08:15:50.208Z,78.22
2019-01-29T08:20:46.225Z,77.85
2019-01-29T08:25:47.688Z,77.52
2019-01-29T08:30:37.176Z,76.97
2019-01-29T08:35:42.442Z,76.29
2019-01-29T08:40:36.986Z,75.47
2019-01-29T08:45:31.777Z,74.70
2019-01-29T08:50:27.915Z,74.07
2019-01-29T08:55:22.926Z,73.41
2019-01-29T09:00:22.340Z,73.33
2019-01-29T09:05:17.055Z,71.67
2019-01-29T09:10:18.446Z,70.42
2019-01-29T09:15:22.463Z,71.53
2019-01-29T09:20:21.715Z,69.47
2019-01-29T09:25:20.867Z,68.22
2019-01-29T09:30:21.518Z,67.49
2019-01-29T09:35:16.255Z,66.21
2019-01-29T09:40:20.551Z,65.19
2019-01-29T09:45:19.240Z,65.40
2019-01-29T09:50:18.670Z,65.02
2019-01-29T09:55:17.106Z,63.48
2019-01-29T10:00:22.471Z,61.41
2019-01-29T10:05:17.359Z,60.94
2019-01-29T10:10:15.866Z,61.27
2019-01-29T10:15:20.653Z,60.99
2019-01-29T10:20:21.952Z,59.84
2019-01-29T10:25:17.944Z,58.14
2019-01-29T10:30:23.066Z,58.89
2019-01-29T10:35:21.255Z,57.97
2019-01-29T10:40:22.590Z,57.11
2019-01-29T10:45:20.852Z,55.59
2019-01-29T10:50:19.900Z,55.77
2019-01-29T10:55:14.874Z,54.82
2019-01-29T11:00:19.671Z,52.02
2019-01-29T11:05:18.618Z,51.92
2019-01-29T11:10:17.054Z,52.09
2019-01-29T11:15:19.179Z,51.44
2019-01-29T11:20:17.480Z,49.67
2019-01-29T11:25:16.880Z,49.92
2019-01-29T11:30:16.166Z,50.91
2019-01-29T11:35:12.797Z,48.92
2019-01-29T11:40:12.853Z,48.42
2019-01-29T11:45:21.445Z,48.02
2019-01-29T11:50:16.352Z,48.55
2019-01-29T11:55:14.311Z,49.63
2019-01-29T12:00:17.572Z,49.36
2019-01-29T12:05:13.199Z,51.02
2019-01-29T12:10:11.577Z,50.06
2019-01-29T12:15:10.861Z,49.08
2019-01-29T12:20:10.066Z,48.22
2019-01-29T12:25:06.575Z,44.57
2019-01-29T12:30:02.814Z,43.59
2019-01-29T12:34:57.908Z,45.39
2019-01-29T12:39:52.560Z,43.98
2019-01-29T12:44:47.148Z,44.17
2019-01-29T12:49:42.182Z,44.75
2019-01-29T12:54:36.908Z,44.52
2019-01-29T12:59:31.496Z,45.39
2019-01-29T13:04:30.550Z,47.03
2019-01-29T13:09:25.215Z,47.82
2019-01-29T13:14:19.895Z,47.27
2019-01-29T13:19:14.598Z,47.84
2019-01-29T13:24:09.203Z,47.67
2019-01-29T13:29:04.017Z,47.55
2019-01-29T13:33:58.632Z,49.26
2019-01-29T13:38:53.640Z,50.13
2019-01-29T13:43:48.252Z,49.27
2019-01-29T13:48:42.939Z,48.82
2019-01-29T13:53:37.550Z,50.33
2019-01-29T13:58:32.212Z,50.52
2019-01-29T14:03:26.850Z,51.06
2019-01-29T14:08:21.525Z,51.00
2019-01-29T14:13:16.121Z,51.05
2019-01-29T14:18:11.636Z,51.23
2019-01-29T14:23:08.346Z,51.28
2019-01-29T14:28:03.368Z,49.72
2019-01-29T14:33:02.338Z,49.91
2019-01-29T14:38:07.156Z,50.50
2019-01-29T14:43:01.968Z,50.39
2019-01-29T14:47:56.788Z,50.74
2019-01-29T14:52:51.717Z,50.96
2019-01-29T14:57:46.349Z,51.33
2019-01-29T15:02:40.912Z,52.48
2019-01-29T15:07:35.504Z,51.98
2019-01-29T15:12:30.109Z,51.91
2019-01-29T15:17:26.561Z,53.23
2019-01-29T15:22:21.746Z,52.35
2019-01-29T15:27:16.500Z,52.52
2019-01-29T15:32:11.200Z,51.84
2019-01-29T15:37:06.447Z,52.45
2019-01-29T15:42:01.046Z,53.20
2019-01-29T15:46:55.644Z,54.90
2019-01-29T15:51:50.449Z,55.12
2019-01-29T15:56:45.191Z,55.04
2019-01-29T16:01:39.940Z,55.49
2019-01-29T16:06:34.503Z,55.84
2019-01-29T16:11:29.084Z,56.31
2019-01-29T16:16:23.689Z,56.60
2019-01-29T16:21:18.332Z,57.32
2019-01-29T16:26:13.031Z,57.63
2019-01-29T16:31:07.783Z,58.14
2019-01-29T16:36:02.604Z,59.04
2019-01-29T16:41:00.508Z,60.09
2019-01-29T16:45:53.654Z,60.83
2019-01-29T16:50:48.242Z,61.63
2019-01-29T16:55:42.838Z,62.21
2019-01-29T17:00:43.021Z,62.90
2019-01-29T17:05:37.847Z,62.78
2019-01-29T17:10:34.630Z,64.03
2019-01-29T17:15:38.235Z,64.72
2019-01-29T17:20:40.699Z,65.33
2019-01-29T17:25:35.527Z,66.04
2019-01-29T17:30:39.501Z,65.91
2019-01-29T17:35:34.601Z,65.25
2019-01-29T17:40:29.191Z,64.93
2019-01-29T17:45:33.767Z,65.00
2019-01-29T17:50:35.574Z,65.39
2019-01-29T17:55:31.578Z,65.51
2019-01-29T18:00:33.259Z,64.45
2019-01-29T18:05:27.967Z,65.43
2019-01-29T18:10:23.194Z,66.02
2019-01-29T18:15:30.446Z,65.21
2019-01-29T18:20:25.412Z,65.63
2019-01-29T18:25:20.289Z,65.74
2019-01-29T18:30:18.997Z,65.51
2019-01-29T18:35:13.999Z,65.78
2019-01-29T18:40:19.336Z,65.82
2019-01-29T18:45:14.968Z,65.68
2019-01-29T18:50:14.267Z,65.85
2019-01-29T18:55:11.972Z,65.47
2019-01-29T19:00:22.968Z,65.44
2019-01-29T19:05:19.369Z,65.70
2019-01-29T19:10:17.957Z,65.67
2019-01-29T19:15:22.632Z,65.58
2019-01-29T19:20:21.633Z,65.37
2019-01-29T19:25:17.984Z,65.83
2019-01-29T19:30:29.154Z,65.43
2019-01-29T19:35:24.104Z,65.66
2019-01-29T19:40:19.927Z,66.04
2019-01-29T19:45:27.114Z,66.40
2019-01-29T19:50:25.791Z,67.10
2019-01-29T19:55:20.718Z,67.14
2019-01-29T20:00:37.301Z,67.27
2019-01-29T20:05:32.188Z,67.48
2019-01-29T20:10:26.936Z,68.12
2019-01-29T20:15:26.784Z,68.35
2019-01-29T20:20:25.785Z,68.31
2019-01-29T20:25:20.384Z,68.60
2019-01-29T20:30:28.913Z,69.29
2019-01-29T20:35:23.634Z,69.37
2019-01-29T20:40:22.237Z,69.41
2019-01-29T20:45:17.457Z,69.36
2019-01-29T20:50:19.013Z,69.85
2019-01-29T20:55:14.020Z,70.42
2019-01-29T21:00:21.909Z,70.52
2019-01-29T21:05:16.820Z,70.68
2019-01-29T21:10:15.878Z,70.78
2019-01-29T21:15:14.938Z,70.89
2019-01-29T21:20:16.145Z,70.89
2019-01-29T21:25:11.038Z,71.20
2019-01-29T21:30:12.667Z,71.16
2019-01-29T21:35:08.154Z,71.21
2019-01-29T21:40:02.773Z,71.29
2019-01-29T21:44:57.400Z,71.38
2019-01-29T21:49:51.995Z,71.33
2019-01-29T21:54:46.584Z,71.71
2019-01-29T21:59:41.179Z,71.88
2019-01-29T22:04:35.759Z,71.61
2019-01-29T22:09:30.345Z,71.48
2019-01-29T22:14:24.953Z,71.62
2019-01-29T22:19:19.563Z,71.67
2019-01-29T22:24:14.272Z,71.36
2019-01-29T22:29:08.851Z,70.94
2019-01-29T22:34:03.425Z,71.49
2019-01-29T22:38:58.045Z,72.19
2019-01-29T22:43:52.635Z,72.42
2019-01-29T22:48:47.209Z,72.68
2019-01-29T22:53:41.868Z,72.40
2019-01-29T22:58:36.475Z,72.94
2019-01-29T23:03:38.787Z,72.80
2019-01-29T23:08:33.426Z,72.72
2019-01-29T23:13:28.071Z,72.43
2019-01-29T23:18:22.724Z,72.68
2019-01-29T23:23:17.331Z,72.65
2019-01-29T23:28:11.908Z,73.22
2019-01-29T23:33:06.498Z,73.67
2019-01-29T23:38:01.105Z,72.85
2019-01-29T23:42:55.681Z,73.92
2019-01-29T23:47:51.909Z,73.36
2019-01-29T23:52:46.511Z,73.17
2019-01-29T23:57:41.167Z,73.30
